createdAt,value
2018-09-23T00:00:06.594Z,22.388611
2018-09-23T00:00:36.156Z,22.388611
2018-09-23T00:01:06.308Z,22.348328
2018-09-23T00:01:35.782Z,22.297974
2018-09-23T00:02:05.280Z,22.267761
2018-09-23T00:02:34.690Z,22.308044
2018-09-23T00:03:04.275Z,22.24762
2018-09-23T00:03:33.765Z,22.237549
2018-09-23T00:04:03.329Z,22.197266
2018-09-23T00:04:32.634Z,22.146912
2018-09-23T00:05:02.199Z,22.136841
2018-09-23T00:05:31.774Z,22.217407
2018-09-23T00:06:01.271Z,22.308044
2018-09-23T00:06:30.911Z,22.398682
2018-09-23T00:07:00.284Z,22.459106
2018-09-23T00:07:30.385Z,22.519531
2018-09-23T00:07:59.856Z,22.569885
2018-09-23T00:08:29.619Z,22.600098
2018-09-23T00:08:58.975Z,22.720947
2018-09-23T00:09:28.294Z,22.76123
2018-09-23T00:09:57.644Z,22.771301
2018-09-23T00:10:27.600Z,22.731018
2018-09-23T00:10:57.149Z,22.791443
2018-09-23T00:11:27.038Z,22.801514
2018-09-23T00:11:56.661Z,22.791443
2018-09-23T00:12:26.124Z,22.791443
2018-09-23T00:12:56.864Z,22.821655
2018-09-23T00:13:26.415Z,22.771301
2018-09-23T00:13:55.949Z,22.720947
2018-09-23T00:14:25.369Z,22.75116
2018-09-23T00:14:55.151Z,22.76123
2018-09-23T00:15:24.784Z,22.801514
2018-09-23T00:15:54.288Z,22.821655
2018-09-23T00:16:23.651Z,22.851868
2018-09-23T00:16:53.067Z,22.791443
2018-09-23T00:17:23.476Z,22.771301
2018-09-23T00:17:53.289Z,22.76123
2018-09-23T00:18:22.667Z,22.670593
2018-09-23T00:18:52.040Z,22.610168
2018-09-23T00:19:21.460Z,22.539673
2018-09-23T00:19:51.117Z,22.469177
2018-09-23T00:20:23.366Z,22.459106
2018-09-23T00:20:55.357Z,22.469177
2018-09-23T00:21:25.747Z,22.519531
2018-09-23T00:21:55.194Z,22.569885
2018-09-23T00:22:25.300Z,22.600098
2018-09-23T00:22:54.751Z,22.610168
2018-09-23T00:23:24.539Z,22.610168
2018-09-23T00:23:54.466Z,22.650452
2018-09-23T00:24:24.198Z,22.700806
2018-09-23T00:24:53.723Z,22.670593
2018-09-23T00:25:24.400Z,22.600098
2018-09-23T00:25:53.889Z,22.549744
2018-09-23T00:26:23.675Z,22.519531
2018-09-23T00:26:53.184Z,22.50946
2018-09-23T00:27:22.693Z,22.489319
2018-09-23T00:27:52.422Z,22.489319
2018-09-23T00:28:27.983Z,22.428894
2018-09-23T00:29:25.914Z,22.368469
2018-09-23T00:30:15.772Z,22.267761
2018-09-23T00:31:03.476Z,22.237549
2018-09-23T00:31:51.839Z,22.237549
2018-09-23T00:32:22.792Z,22.237549
2018-09-23T00:32:52.780Z,22.237549
2018-09-23T00:33:22.619Z,22.217407
2018-09-23T00:33:58.836Z,22.177124
2018-09-23T00:34:36.584Z,22.177124
2018-09-23T00:35:20.230Z,22.167053
2018-09-23T00:35:57.069Z,22.217407
2018-09-23T00:36:41.934Z,22.136841
2018-09-23T00:37:13.035Z,22.096558
2018-09-23T00:37:45.934Z,22.167053
2018-09-23T00:38:26.421Z,22.267761
2018-09-23T00:39:15.839Z,22.348328
2018-09-23T00:40:00.804Z,22.358398
2018-09-23T00:40:55.109Z,22.459106
2018-09-23T00:41:26.380Z,22.398682
2018-09-23T00:41:59.592Z,22.348328
2018-09-23T00:42:36.223Z,22.348328
2018-09-23T00:43:25.255Z,22.428894
2018-09-23T00:44:04.579Z,22.489319
2018-09-23T00:44:40.888Z,22.549744
2018-09-23T00:45:12.374Z,22.600098
2018-09-23T00:45:42.297Z,22.620239
2018-09-23T00:46:12.225Z,22.680664
2018-09-23T00:46:41.957Z,22.700806
2018-09-23T00:47:11.579Z,22.731018
2018-09-23T00:47:41.367Z,22.75116
2018-09-23T00:48:11.089Z,22.791443
2018-09-23T00:48:40.611Z,22.801514
2018-09-23T00:49:10.516Z,22.801514
2018-09-23T00:49:40.462Z,22.771301
2018-09-23T00:50:11.170Z,22.801514
2018-09-23T00:50:41.267Z,22.821655
2018-09-23T00:51:11.238Z,22.831726
2018-09-23T00:51:41.604Z,22.861938
2018-09-23T00:52:13.469Z,22.88208
2018-09-23T00:52:43.321Z,22.861938
2018-09-23T00:53:13.135Z,22.902222
2018-09-23T00:53:42.938Z,22.88208
2018-09-23T00:54:13.323Z,22.912292
2018-09-23T00:54:43.372Z,22.902222
2018-09-23T00:55:13.313Z,22.912292
2018-09-23T00:55:43.158Z,22.922363
2018-09-23T00:56:13.058Z,22.922363
2018-09-23T00:56:44.193Z,22.922363
2018-09-23T00:57:14.483Z,22.922363
2018-09-23T00:57:45.205Z,22.902222
2018-09-23T00:58:15.243Z,22.88208
2018-09-23T00:58:45.837Z,22.861938
2018-09-23T00:59:16.880Z,22.902222
2018-09-23T00:59:47.546Z,22.912292
2018-09-23T01:00:17.006Z,22.912292
2018-09-23T01:00:46.429Z,22.922363
2018-09-23T01:01:17.054Z,22.912292
2018-09-23T01:01:46.575Z,22.912292
2018-09-23T01:02:16.275Z,22.912292
2018-09-23T01:02:46.098Z,22.851868
2018-09-23T01:03:15.817Z,22.801514
2018-09-23T01:03:47.420Z,22.771301
2018-09-23T01:04:21.746Z,22.771301
2018-09-23T01:04:57.239Z,22.791443
2018-09-23T01:05:30.863Z,22.731018
2018-09-23T01:06:00.601Z,22.579956
2018-09-23T01:06:31.245Z,22.519531
2018-09-23T01:07:01.379Z,22.459106
2018-09-23T01:07:31.113Z,22.459106
2018-09-23T01:08:01.266Z,22.459106
2018-09-23T01:08:31.880Z,22.388611
2018-09-23T01:09:02.012Z,22.328186
2018-09-23T01:09:31.776Z,22.237549
2018-09-23T01:10:01.814Z,22.197266
2018-09-23T01:10:31.642Z,22.096558
2018-09-23T01:11:01.440Z,22.015991
2018-09-23T01:11:31.385Z,21.915283
2018-09-23T01:12:03.352Z,21.875
2018-09-23T01:12:34.059Z,21.794434
2018-09-23T01:13:04.696Z,21.713867
2018-09-23T01:13:35.910Z,21.713867
2018-09-23T01:14:06.327Z,21.74408
2018-09-23T01:14:36.677Z,21.804504
2018-09-23T01:15:07.948Z,21.915283
2018-09-23T01:15:38.199Z,21.985779
2018-09-23T01:16:09.757Z,22.026062
2018-09-23T01:16:40.295Z,22.026062
2018-09-23T01:17:10.856Z,22.066345
2018-09-23T01:17:41.696Z,22.136841
2018-09-23T01:18:12.202Z,22.096558
2018-09-23T01:18:42.288Z,22.086487
2018-09-23T01:19:12.488Z,22.066345
2018-09-23T01:19:42.653Z,22.136841
2018-09-23T01:20:13.565Z,22.197266
2018-09-23T01:20:44.067Z,22.217407
2018-09-23T01:21:14.562Z,22.277832
2018-09-23T01:21:44.735Z,22.328186
2018-09-23T01:22:15.723Z,22.308044
2018-09-23T01:22:47.073Z,22.267761
2018-09-23T01:23:17.797Z,22.267761
2018-09-23T01:23:48.316Z,22.237549
2018-09-23T01:24:19.014Z,22.207336
2018-09-23T01:24:50.260Z,22.207336
2018-09-23T01:25:20.745Z,22.167053
2018-09-23T01:25:53.440Z,22.116699
2018-09-23T01:26:25.269Z,22.066345
2018-09-23T01:26:58.798Z,21.985779
2018-09-23T01:27:34.877Z,21.794434
2018-09-23T01:28:07.435Z,21.693726
2018-09-23T01:28:37.922Z,21.643372
2018-09-23T01:29:08.640Z,21.613159
2018-09-23T01:29:39.271Z,21.62323
2018-09-23T01:30:09.774Z,21.613159
2018-09-23T01:30:40.166Z,21.62323
2018-09-23T01:31:11.560Z,21.62323
2018-09-23T01:31:44.801Z,21.643372
2018-09-23T01:32:15.192Z,21.62323
2018-09-23T01:32:45.705Z,21.673584
2018-09-23T01:33:16.046Z,21.693726
2018-09-23T01:33:46.613Z,21.713867
2018-09-23T01:34:16.895Z,21.794434
2018-09-23T01:34:47.277Z,21.834717
2018-09-23T01:35:17.505Z,21.875
2018-09-23T01:35:47.595Z,21.895142
2018-09-23T01:36:17.797Z,21.975708
2018-09-23T01:36:48.098Z,22.015991
2018-09-23T01:37:18.514Z,22.026062
2018-09-23T01:37:48.901Z,21.935425
2018-09-23T01:38:19.365Z,21.875
2018-09-23T01:38:49.790Z,21.864929
2018-09-23T01:39:20.148Z,21.905212
2018-09-23T01:39:50.516Z,22.026062
2018-09-23T01:40:21.323Z,22.177124
2018-09-23T01:40:51.716Z,22.297974
2018-09-23T01:41:21.856Z,22.388611
2018-09-23T01:41:52.080Z,22.428894
2018-09-23T01:42:22.606Z,22.428894
2018-09-23T01:42:52.953Z,22.469177
2018-09-23T01:43:23.165Z,22.469177
2018-09-23T01:43:53.300Z,22.519531
2018-09-23T01:44:23.590Z,22.569885
2018-09-23T01:44:53.723Z,22.579956
2018-09-23T01:45:23.836Z,22.610168
2018-09-23T01:45:54.004Z,22.610168
2018-09-23T01:46:24.302Z,22.620239
2018-09-23T01:46:55.558Z,22.640381
2018-09-23T01:47:25.834Z,22.670593
2018-09-23T01:47:56.220Z,22.670593
2018-09-23T01:48:26.686Z,22.620239
2018-09-23T01:48:56.999Z,22.569885
2018-09-23T01:49:27.349Z,22.519531
2018-09-23T01:49:57.658Z,22.519531
2018-09-23T01:50:27.805Z,22.50946
2018-09-23T01:50:57.840Z,22.469177
2018-09-23T01:51:28.261Z,22.469177
2018-09-23T01:51:58.562Z,22.459106
2018-09-23T01:52:29.017Z,22.469177
2018-09-23T01:52:59.478Z,22.50946
2018-09-23T01:53:29.812Z,22.539673
2018-09-23T01:54:00.127Z,22.600098
2018-09-23T01:54:30.420Z,22.610168
2018-09-23T01:55:00.538Z,22.620239
2018-09-23T01:55:30.723Z,22.640381
2018-09-23T01:56:00.746Z,22.650452
2018-09-23T01:56:30.872Z,22.670593
2018-09-23T01:57:00.875Z,22.700806
2018-09-23T01:57:30.233Z,22.680664
2018-09-23T01:58:00.584Z,22.731018
2018-09-23T01:58:29.926Z,22.76123
2018-09-23T01:58:59.232Z,22.791443
2018-09-23T01:59:28.624Z,22.821655
2018-09-23T01:59:57.989Z,22.791443
2018-09-23T02:00:27.296Z,22.821655
2018-09-23T02:00:56.598Z,22.851868
2018-09-23T02:01:26.909Z,22.861938
2018-09-23T02:01:56.175Z,22.88208
2018-09-23T02:02:25.457Z,22.922363
2018-09-23T02:02:54.745Z,22.912292
2018-09-23T02:03:24.120Z,22.942505
2018-09-23T02:03:53.451Z,22.952576
2018-09-23T02:04:22.730Z,22.952576
2018-09-23T02:04:52.029Z,22.952576
2018-09-23T02:05:21.327Z,22.952576
2018-09-23T02:05:50.653Z,22.952576
2018-09-23T02:06:19.964Z,22.912292
2018-09-23T02:06:50.269Z,22.922363
2018-09-23T02:07:19.561Z,22.912292
2018-09-23T02:07:49.812Z,22.922363
2018-09-23T02:08:19.153Z,22.942505
2018-09-23T02:08:48.512Z,22.922363
2018-09-23T02:09:17.782Z,22.942505
2018-09-23T02:09:47.096Z,22.952576
2018-09-23T02:10:16.379Z,22.952576
2018-09-23T02:10:45.726Z,22.952576
2018-09-23T02:11:15.026Z,22.922363
2018-09-23T02:11:44.384Z,22.902222
2018-09-23T02:12:13.664Z,22.851868
2018-09-23T02:12:42.972Z,22.791443
2018-09-23T02:13:12.298Z,22.791443
2018-09-23T02:13:41.628Z,22.801514
2018-09-23T02:14:10.966Z,22.821655
2018-09-23T02:14:40.272Z,22.851868
2018-09-23T02:15:09.581Z,22.851868
2018-09-23T02:15:38.969Z,22.851868
2018-09-23T02:16:08.240Z,22.861938
2018-09-23T02:16:37.502Z,22.851868
2018-09-23T02:17:06.763Z,22.861938
2018-09-23T02:17:37.091Z,22.88208
2018-09-23T02:18:06.394Z,22.861938
2018-09-23T02:18:35.753Z,22.88208
2018-09-23T02:19:05.060Z,22.851868
2018-09-23T02:19:34.366Z,22.851868
2018-09-23T02:20:03.692Z,22.821655
2018-09-23T02:20:32.965Z,22.821655
2018-09-23T02:21:02.336Z,22.831726
2018-09-23T02:21:31.603Z,22.851868
2018-09-23T02:22:00.928Z,22.851868
2018-09-23T02:22:30.200Z,22.821655
2018-09-23T02:22:59.497Z,22.76123
2018-09-23T02:23:29.769Z,22.75116
2018-09-23T02:23:59.101Z,22.75116
2018-09-23T02:24:28.372Z,22.76123
2018-09-23T02:24:58.639Z,22.76123
2018-09-23T02:25:27.912Z,22.771301
2018-09-23T02:25:57.207Z,22.791443
2018-09-23T02:26:26.488Z,22.791443
2018-09-23T02:26:55.821Z,22.801514
2018-09-23T02:27:25.118Z,22.791443
2018-09-23T02:27:54.376Z,22.821655
2018-09-23T02:28:23.691Z,22.831726
2018-09-23T02:28:53.041Z,22.851868
2018-09-23T02:29:22.336Z,22.851868
2018-09-23T02:29:51.661Z,22.861938
2018-09-23T02:30:20.982Z,22.861938
2018-09-23T02:30:50.256Z,22.88208
2018-09-23T02:31:19.558Z,22.88208
2018-09-23T02:31:48.841Z,22.861938
2018-09-23T02:32:18.120Z,22.902222
2018-09-23T02:32:47.379Z,22.902222
2018-09-23T02:33:16.675Z,22.902222
2018-09-23T02:33:46.039Z,22.902222
2018-09-23T02:34:15.442Z,22.912292
2018-09-23T02:34:44.725Z,22.902222
2018-09-23T02:35:14.013Z,22.831726
2018-09-23T02:35:43.296Z,22.831726
2018-09-23T02:36:12.587Z,22.831726
2018-09-23T02:36:41.883Z,22.831726
2018-09-23T02:37:11.164Z,22.831726
2018-09-23T02:37:40.451Z,22.831726
2018-09-23T02:38:09.728Z,22.831726
2018-09-23T02:38:40.987Z,22.791443
2018-09-23T02:39:10.321Z,22.680664
2018-09-23T02:39:39.584Z,22.579956
2018-09-23T02:40:08.941Z,22.489319
2018-09-23T02:40:39.202Z,22.368469
2018-09-23T02:41:08.548Z,22.297974
2018-09-23T02:41:37.846Z,22.297974
2018-09-23T02:42:07.185Z,22.24762
2018-09-23T02:42:36.486Z,22.267761
2018-09-23T02:43:05.808Z,22.24762
2018-09-23T02:43:35.094Z,22.24762
2018-09-23T02:44:04.457Z,22.24762
2018-09-23T02:44:33.777Z,22.217407
2018-09-23T02:45:03.099Z,22.197266
2018-09-23T02:45:32.385Z,22.146912
2018-09-23T02:46:01.680Z,22.046204
2018-09-23T02:46:31.011Z,21.99585
2018-09-23T02:47:00.370Z,21.935425
2018-09-23T02:47:29.643Z,21.915283
2018-09-23T02:47:58.947Z,21.895142
2018-09-23T02:48:28.219Z,21.915283
2018-09-23T02:48:57.536Z,21.955566
2018-09-23T02:49:26.902Z,21.985779
2018-09-23T02:49:56.190Z,22.015991
2018-09-23T02:50:25.504Z,22.056274
2018-09-23T02:50:54.765Z,22.136841
2018-09-23T02:51:24.058Z,22.177124
2018-09-23T02:51:53.341Z,22.177124
2018-09-23T02:52:22.644Z,22.207336
2018-09-23T02:52:51.925Z,22.237549
2018-09-23T02:53:22.168Z,22.24762
2018-09-23T02:53:51.473Z,22.267761
2018-09-23T02:54:20.773Z,22.277832
2018-09-23T02:54:50.109Z,22.267761
2018-09-23T02:55:19.401Z,22.267761
2018-09-23T02:55:48.655Z,22.24762
2018-09-23T02:56:17.936Z,22.217407
2018-09-23T02:56:47.253Z,22.24762
2018-09-23T02:57:16.530Z,22.267761
2018-09-23T02:57:45.795Z,22.308044
2018-09-23T02:58:15.107Z,22.348328
2018-09-23T02:58:44.436Z,22.358398
2018-09-23T02:59:13.700Z,22.358398
2018-09-23T02:59:43.038Z,22.348328
2018-09-23T03:00:12.337Z,22.308044
2018-09-23T03:00:41.637Z,22.348328
2018-09-23T03:01:10.929Z,22.348328
2018-09-23T03:01:40.196Z,22.358398
2018-09-23T03:02:10.451Z,22.297974
2018-09-23T03:02:39.737Z,22.197266
2018-09-23T03:03:08.987Z,22.096558
2018-09-23T03:03:38.304Z,22.015991
2018-09-23T03:04:07.706Z,21.955566
2018-09-23T03:04:36.971Z,21.864929
2018-09-23T03:05:06.334Z,21.774292
2018-09-23T03:05:35.618Z,21.74408
2018-09-23T03:06:04.922Z,21.74408
2018-09-23T03:06:34.289Z,21.75415
2018-09-23T03:07:03.580Z,21.713867
2018-09-23T03:07:32.861Z,21.713867
2018-09-23T03:08:02.170Z,21.74408
2018-09-23T03:08:31.415Z,21.75415
2018-09-23T03:09:00.687Z,21.774292
2018-09-23T03:09:29.953Z,21.804504
2018-09-23T03:09:59.288Z,21.864929
2018-09-23T03:10:28.568Z,21.905212
2018-09-23T03:10:57.854Z,21.955566
2018-09-23T03:11:27.189Z,22.015991
2018-09-23T03:11:56.544Z,22.046204
2018-09-23T03:12:25.857Z,22.066345
2018-09-23T03:12:55.161Z,22.096558
2018-09-23T03:13:24.512Z,22.116699
2018-09-23T03:13:53.853Z,22.136841
2018-09-23T03:14:23.197Z,22.146912
2018-09-23T03:14:52.497Z,22.207336
2018-09-23T03:15:21.823Z,22.217407
2018-09-23T03:15:51.100Z,22.237549
2018-09-23T03:16:20.413Z,22.24762
2018-09-23T03:16:49.894Z,22.24762
2018-09-23T03:17:19.211Z,22.217407
2018-09-23T03:17:48.520Z,22.207336
2018-09-23T03:18:17.808Z,22.167053
2018-09-23T03:18:47.135Z,22.086487
2018-09-23T03:19:16.444Z,22.056274
2018-09-23T03:19:45.742Z,22.046204
2018-09-23T03:20:15.064Z,21.99585
2018-09-23T03:20:45.330Z,21.99585
2018-09-23T03:21:14.643Z,22.015991
2018-09-23T03:21:43.948Z,21.99585
2018-09-23T03:22:13.366Z,21.985779
2018-09-23T03:22:42.676Z,21.985779
2018-09-23T03:23:11.987Z,22.015991
2018-09-23T03:23:41.287Z,21.99585
2018-09-23T03:24:10.683Z,22.015991
2018-09-23T03:24:40.021Z,22.015991
2018-09-23T03:25:09.317Z,22.026062
2018-09-23T03:25:38.706Z,22.026062
2018-09-23T03:26:08.027Z,22.046204
2018-09-23T03:26:37.381Z,22.046204
2018-09-23T03:27:06.691Z,22.026062
2018-09-23T03:27:35.993Z,22.015991
2018-09-23T03:28:05.362Z,21.975708
2018-09-23T03:28:34.641Z,21.985779
2018-09-23T03:29:03.958Z,21.975708
2018-09-23T03:29:33.257Z,21.985779
2018-09-23T03:30:02.565Z,21.985779
2018-09-23T03:30:31.889Z,21.99585
2018-09-23T03:31:01.290Z,21.99585
2018-09-23T03:31:31.644Z,21.985779
2018-09-23T03:32:00.985Z,22.015991
2018-09-23T03:32:30.302Z,21.99585
2018-09-23T03:32:59.650Z,22.015991
2018-09-23T03:33:28.969Z,22.026062
2018-09-23T03:33:58.311Z,22.026062
2018-09-23T03:34:27.608Z,22.026062
2018-09-23T03:34:57.007Z,22.026062
2018-09-23T03:35:26.359Z,22.026062
2018-09-23T03:35:55.791Z,21.99585
2018-09-23T03:36:25.100Z,21.985779
2018-09-23T03:36:54.429Z,22.015991
2018-09-23T03:37:23.744Z,21.955566
2018-09-23T03:37:53.046Z,21.905212
2018-09-23T03:38:22.342Z,21.905212
2018-09-23T03:38:51.621Z,21.895142
2018-09-23T03:39:20.898Z,21.895142
2018-09-23T03:39:50.246Z,21.844788
2018-09-23T03:40:19.596Z,21.794434
2018-09-23T03:40:48.971Z,21.723938
2018-09-23T03:41:18.296Z,21.643372
2018-09-23T03:41:47.639Z,21.593018
2018-09-23T03:42:16.993Z,21.532593
2018-09-23T03:42:46.343Z,21.522522
2018-09-23T03:43:15.686Z,21.522522
2018-09-23T03:43:44.976Z,21.522522
2018-09-23T03:44:14.344Z,21.522522
2018-09-23T03:44:43.736Z,21.50238
2018-09-23T03:45:13.017Z,21.522522
2018-09-23T03:45:42.385Z,21.532593
2018-09-23T03:46:11.794Z,21.522522
2018-09-23T03:46:41.120Z,21.582947
2018-09-23T03:47:10.441Z,21.562805
2018-09-23T03:47:39.835Z,21.593018
2018-09-23T03:48:09.152Z,21.613159
2018-09-23T03:48:38.558Z,21.673584
2018-09-23T03:49:07.859Z,21.693726
2018-09-23T03:49:37.152Z,21.74408
2018-09-23T03:50:06.418Z,21.75415
2018-09-23T03:50:35.730Z,21.723938
2018-09-23T03:51:05.046Z,21.74408
2018-09-23T03:51:34.343Z,21.74408
2018-09-23T03:52:03.683Z,21.643372
2018-09-23T03:52:32.947Z,21.532593
2018-09-23T03:53:02.245Z,21.50238
2018-09-23T03:53:31.527Z,21.522522
2018-09-23T03:54:00.829Z,21.542664
2018-09-23T03:54:30.099Z,21.562805
2018-09-23T03:54:59.394Z,21.542664
2018-09-23T03:55:28.638Z,21.593018
2018-09-23T03:55:57.921Z,21.582947
2018-09-23T03:56:27.268Z,21.562805
2018-09-23T03:56:56.563Z,21.562805
2018-09-23T03:57:25.824Z,21.582947
2018-09-23T03:57:55.101Z,21.562805
2018-09-23T03:58:24.459Z,21.562805
2018-09-23T03:58:53.745Z,21.582947
2018-09-23T03:59:23.068Z,21.562805
2018-09-23T03:59:52.397Z,21.593018
2018-09-23T04:00:22.671Z,21.62323
2018-09-23T04:00:51.952Z,21.653442
2018-09-23T04:01:21.320Z,21.653442
2018-09-23T04:01:50.616Z,21.643372
2018-09-23T04:02:20.901Z,21.653442
2018-09-23T04:02:50.208Z,21.593018
2018-09-23T04:03:19.503Z,21.613159
2018-09-23T04:03:48.776Z,21.582947
2018-09-23T04:04:18.085Z,21.593018
2018-09-23T04:04:47.345Z,21.562805
2018-09-23T04:05:16.639Z,21.542664
2018-09-23T04:05:46.007Z,21.522522
2018-09-23T04:06:15.318Z,21.532593
2018-09-23T04:06:44.636Z,21.532593
2018-09-23T04:07:13.972Z,21.532593
2018-09-23T04:07:43.265Z,21.542664
2018-09-23T04:08:12.530Z,21.582947
2018-09-23T04:08:43.462Z,21.582947
2018-09-23T04:09:12.770Z,21.593018
2018-09-23T04:09:42.222Z,21.613159
2018-09-23T04:10:11.590Z,21.653442
2018-09-23T04:10:40.953Z,21.683655
2018-09-23T04:11:10.254Z,21.693726
2018-09-23T04:11:39.611Z,21.673584
2018-09-23T04:12:08.952Z,21.643372
2018-09-23T04:12:38.246Z,21.613159
2018-09-23T04:13:07.545Z,21.643372
2018-09-23T04:13:36.863Z,21.653442
2018-09-23T04:14:06.123Z,21.683655
2018-09-23T04:14:35.464Z,21.653442
2018-09-23T04:15:04.764Z,21.673584
2018-09-23T04:15:34.099Z,21.713867
2018-09-23T04:16:03.405Z,21.723938
2018-09-23T04:16:33.694Z,21.74408
2018-09-23T04:17:03.031Z,21.774292
2018-09-23T04:17:32.309Z,21.75415
2018-09-23T04:18:01.600Z,21.794434
2018-09-23T04:18:30.910Z,21.794434
2018-09-23T04:19:00.212Z,21.834717
2018-09-23T04:19:29.534Z,21.824646
2018-09-23T04:19:58.907Z,21.864929
2018-09-23T04:20:28.216Z,21.875
2018-09-23T04:20:57.468Z,21.905212
2018-09-23T04:21:26.766Z,21.895142
2018-09-23T04:21:56.117Z,21.875
2018-09-23T04:22:25.441Z,21.844788
2018-09-23T04:22:54.747Z,21.794434
2018-09-23T04:23:25.012Z,21.723938
2018-09-23T04:23:54.311Z,21.683655
2018-09-23T04:24:23.669Z,21.593018
2018-09-23T04:24:53.005Z,21.542664
2018-09-23T04:25:22.392Z,21.522522
2018-09-23T04:25:51.692Z,21.49231
2018-09-23T04:26:20.951Z,21.50238
2018-09-23T04:26:50.336Z,21.50238
2018-09-23T04:27:19.706Z,21.49231
2018-09-23T04:27:48.978Z,21.462097
2018-09-23T04:28:18.333Z,21.49231
2018-09-23T04:28:47.589Z,21.522522
2018-09-23T04:29:16.953Z,21.522522
2018-09-23T04:29:46.230Z,21.532593
2018-09-23T04:30:15.508Z,21.522522
2018-09-23T04:30:44.806Z,21.532593
2018-09-23T04:31:14.124Z,21.462097
2018-09-23T04:31:43.412Z,21.401672
2018-09-23T04:32:12.732Z,21.381531
2018-09-23T04:32:42.057Z,21.421814
2018-09-23T04:33:11.324Z,21.421814
2018-09-23T04:33:40.672Z,21.49231
2018-09-23T04:34:10.044Z,21.522522
2018-09-23T04:34:39.299Z,21.542664
2018-09-23T04:35:08.581Z,21.593018
2018-09-23T04:35:37.881Z,21.582947
2018-09-23T04:36:07.171Z,21.613159
2018-09-23T04:36:36.442Z,21.613159
2018-09-23T04:37:05.773Z,21.62323
2018-09-23T04:37:35.180Z,21.582947
2018-09-23T04:38:05.578Z,21.593018
2018-09-23T04:38:34.859Z,21.62323
2018-09-23T04:39:04.168Z,21.593018
2018-09-23T04:39:33.432Z,21.593018
2018-09-23T04:40:02.736Z,21.62323
2018-09-23T04:40:32.062Z,21.613159
2018-09-23T04:41:01.345Z,21.62323
2018-09-23T04:41:30.641Z,21.562805
2018-09-23T04:41:59.931Z,21.542664
2018-09-23T04:42:29.273Z,21.49231
2018-09-23T04:42:58.576Z,21.462097
2018-09-23T04:43:27.930Z,21.441956
2018-09-23T04:43:57.216Z,21.381531
2018-09-23T04:44:26.524Z,21.290894
2018-09-23T04:44:56.805Z,21.24054
2018-09-23T04:45:26.102Z,21.159973
2018-09-23T04:45:55.440Z,21.069336
2018-09-23T04:46:24.754Z,21.008911
2018-09-23T04:46:54.007Z,20.968628
2018-09-23T04:47:23.275Z,20.948486
2018-09-23T04:47:52.625Z,20.908203
2018-09-23T04:48:21.925Z,20.888062
2018-09-23T04:48:52.270Z,20.847778
2018-09-23T04:49:21.578Z,20.877991
2018-09-23T04:49:50.868Z,20.938416
2018-09-23T04:50:20.163Z,20.968628
2018-09-23T04:50:49.473Z,20.948486
2018-09-23T04:51:18.824Z,20.968628
2018-09-23T04:51:48.104Z,21.008911
2018-09-23T04:52:17.423Z,20.98877
2018-09-23T04:52:46.777Z,21.039124
2018-09-23T04:53:16.060Z,21.059265
2018-09-23T04:53:45.452Z,21.039124
2018-09-23T04:54:14.723Z,21.029053
2018-09-23T04:54:44.020Z,20.978699
2018-09-23T04:55:13.295Z,20.908203
2018-09-23T04:55:42.627Z,20.86792
2018-09-23T04:56:11.904Z,20.787354
2018-09-23T04:56:41.238Z,20.757141
2018-09-23T04:57:10.542Z,20.716858
2018-09-23T04:57:39.855Z,20.696716
2018-09-23T04:58:09.222Z,20.686646
2018-09-23T04:58:38.547Z,20.666504
2018-09-23T04:59:07.888Z,20.636292
2018-09-23T04:59:37.233Z,20.61615
2018-09-23T05:00:06.536Z,20.61615
2018-09-23T05:00:35.793Z,20.656433
2018-09-23T05:01:05.099Z,20.716858
2018-09-23T05:01:34.366Z,20.767212
2018-09-23T05:02:03.646Z,20.847778
2018-09-23T05:02:32.956Z,20.908203
2018-09-23T05:03:02.324Z,20.948486
2018-09-23T05:03:31.579Z,20.978699
2018-09-23T05:04:00.882Z,21.039124
2018-09-23T05:04:30.154Z,21.039124
2018-09-23T05:04:59.410Z,21.008911
2018-09-23T05:05:28.722Z,21.008911
2018-09-23T05:05:58.020Z,21.039124
2018-09-23T05:06:27.324Z,21.059265
2018-09-23T05:06:56.605Z,21.099548
2018-09-23T05:07:25.917Z,21.129761
2018-09-23T05:07:55.203Z,21.159973
2018-09-23T05:08:24.550Z,21.170044
2018-09-23T05:08:54.816Z,21.210327
2018-09-23T05:09:24.192Z,21.24054
2018-09-23T05:09:53.462Z,21.311035
2018-09-23T05:10:22.757Z,21.311035
2018-09-23T05:10:53.019Z,21.341248
2018-09-23T05:11:22.294Z,21.37146
2018-09-23T05:11:51.563Z,21.37146
2018-09-23T05:12:20.842Z,21.431885
2018-09-23T05:12:50.113Z,21.441956
2018-09-23T05:13:19.438Z,21.472168
2018-09-23T05:13:48.739Z,21.50238
2018-09-23T05:14:18.034Z,21.50238
2018-09-23T05:14:47.322Z,21.522522
2018-09-23T05:15:16.568Z,21.542664
2018-09-23T05:15:45.852Z,21.542664
2018-09-23T05:16:15.138Z,21.562805
2018-09-23T05:16:44.406Z,21.562805
2018-09-23T05:17:13.712Z,21.542664
2018-09-23T05:17:42.967Z,21.542664
2018-09-23T05:18:12.329Z,21.542664
2018-09-23T05:18:41.706Z,21.472168
2018-09-23T05:19:10.975Z,21.462097
2018-09-23T05:19:40.242Z,21.462097
2018-09-23T05:20:09.524Z,21.441956
2018-09-23T05:20:38.793Z,21.421814
2018-09-23T05:21:08.120Z,21.401672
2018-09-23T05:21:37.380Z,21.421814
2018-09-23T05:22:06.680Z,21.421814
2018-09-23T05:22:35.943Z,21.351318
2018-09-23T05:23:05.203Z,21.290894
2018-09-23T05:23:34.529Z,21.25061
2018-09-23T05:24:03.839Z,21.210327
2018-09-23T05:24:34.122Z,21.220398
2018-09-23T05:25:03.434Z,21.210327
2018-09-23T05:25:32.710Z,21.190186
2018-09-23T05:26:02.029Z,21.129761
2018-09-23T05:26:31.281Z,21.129761
2018-09-23T05:27:00.581Z,21.129761
2018-09-23T05:27:29.878Z,21.170044
2018-09-23T05:27:59.152Z,21.190186
2018-09-23T05:28:28.459Z,21.220398
2018-09-23T05:28:57.853Z,21.220398
2018-09-23T05:29:27.133Z,21.190186
2018-09-23T05:29:56.441Z,21.139832
2018-09-23T05:30:25.729Z,21.170044
2018-09-23T05:30:55.115Z,21.139832
2018-09-23T05:31:24.341Z,21.159973
2018-09-23T05:31:53.633Z,21.159973
2018-09-23T05:32:22.906Z,21.139832
2018-09-23T05:32:52.208Z,21.139832
2018-09-23T05:33:21.542Z,21.159973
2018-09-23T05:33:50.883Z,21.190186
2018-09-23T05:34:20.153Z,21.210327
2018-09-23T05:34:49.466Z,21.190186
2018-09-23T05:35:18.839Z,21.170044
2018-09-23T05:35:49.088Z,21.190186
2018-09-23T05:36:18.438Z,21.170044
2018-09-23T05:36:47.726Z,21.170044
2018-09-23T05:37:16.983Z,21.159973
2018-09-23T05:37:46.268Z,21.129761
2018-09-23T05:38:15.560Z,21.139832
2018-09-23T05:38:44.890Z,21.159973
2018-09-23T05:39:14.260Z,21.159973
2018-09-23T05:39:43.491Z,21.190186
2018-09-23T05:40:12.764Z,21.220398
2018-09-23T05:40:42.068Z,21.25061
2018-09-23T05:41:11.339Z,21.290894
2018-09-23T05:41:40.627Z,21.321106
2018-09-23T05:42:09.902Z,21.311035
2018-09-23T05:42:39.174Z,21.341248
2018-09-23T05:43:08.441Z,21.341248
2018-09-23T05:43:37.743Z,21.351318
2018-09-23T05:44:07.170Z,21.351318